Freeport, TX (77541)

10:15 PM CDT on May 22, 2015 (GMT -0500)
Freeport - Air Liquide | | Change Station
CLOSE
Current Station
Personal Weather Station
Location: Freeport, TX
Elevation: 10 ft
Nearby Weather Stations
Active Advisory: Flood Warning

Elev 10 ft 28.99 °N, 95.34 °W | Updated 18 seconds ago

Overcast
Overcast
78.0 °F
Feels Like 81 °F
N
0.0
Wind Variable Wind from ESE
Gusts 0.0 mph

Today
High -- | Low -- °F
--% Chance of Precip.
Yesterday
High -- | Low -- °F
Precip. -- in
6:26 AM 8:09 PM
Waxing Crescent, 26% visible
Pressure 30.08 in
Visibility 9.0 miles
Clouds Few 4400 ft
Mostly Cloudy 7000 ft
Mostly Cloudy 9000 ft
Heat Index 81 °F
Dew Point 77 °F
Humidity 96%
Rainfall 0.00 in
Snow Depth Not available.
UV 0.0 out of 12
Pollen 3.80 out of 12
Air Quality Not available.
Flu Activity Sporadic
METAR KLBX 230253Z AUTO 11005KT 9SM FEW044 BKN070 BKN090 23/23 A3008 RMK AO2 RAB07E29 SLP184 P0001 60001 T02330233 51007

More Conditions Fewer Conditions

Pressure 30.08 in
Visibility 9.0 miles
Clouds Few 4400 ft
Mostly Cloudy 7000 ft
Mostly Cloudy 9000 ft
Heat Index 81 °F
Dew Point 77 °F
Humidity 96%
Rainfall 0.00 in
Snow Depth Not available.
UV 0.0 out of 12
Pollen 3.80 out of 12
Air Quality Not available.
Flu Activity Sporadic
METAR KLBX 230253Z AUTO 11005KT 9SM FEW044 BKN070 BKN090 23/23 A3008 RMK AO2 RAB07E29 SLP184 P0001 60001 T02330233 51007

More Conditions Fewer Conditions

10-Day Weather Forecast

Almanac

Astronomy

May. 22, 2015 Rise Set
Actual Time
Civil Twilight
Nautical Twilight
Astronomical Twilight
Moon
Length of Visible Light
Length of Day
Tomorrow will be .
, % of the Moon is Illuminated

Today's Extremes

State Highs State Lows

Community

WunderPhotos

Upload Photos

1,823,375 photos uploaded!

WunderBlogs® & News

Nearby

Air Quality

  Air Quality AQ Index Pollutant
Not available.

Snow Depth

Station Depth Elevation

Earthquake Activity

City Distance Mag. Time & Date
Minimum magnitude displayed is 2.5.

Coastal Water Temperatures

Place Temperature

Stations

Nearby Weather Stations

Station Location Temp. Windchill Dew Point Humidity Wind Precip. Elev Updated Type
                   
Flood Warning
Statement as of 9:36 PM CDT on May 22, 2015

... Flood Warning extended until late Saturday night... the Flood Warning
continues for
the Brazos river near Rosharon
* until late Saturday night... or until the warning is canceled.
* At 0901 PM Friday the stage was 44.0 feet.
* Minor flooding is occurring and minor flooding is forecast.
* Flood stage is 43.0 feet.
* Forecast... the river is expected to crest around 44 feet this evening then
should fall to below flood stage by tomorrow early afternoon.
* At 43.0 feet... minor lowland flooding begins in vicinity of gage as flow
escapes the Main Channel.


Lat... Lon 2943 9549 2932 9552 2919 9552 2919 9563 2932 9566 2943 9561





                     flood observed forecast 6 PM
location stage stage day time Sat sun Mon Tue

Brazos river
Rosharon 43 44.0 Fri 09 PM 42.4 37.8 34.2 33.1